createdAt,value
2022-11-29T00:00:08.947Z,10.07
2022-11-29T00:02:44.546Z,7.78
2022-11-29T00:05:19.090Z,8.60
2022-11-29T00:07:54.087Z,9.32
2022-11-29T00:10:23.635Z,8.52
2022-11-29T00:12:52.814Z,10.45
2022-11-29T00:15:22.126Z,10.38
2022-11-29T00:17:53.548Z,9.98
2022-11-29T00:20:22.975Z,10.30
2022-11-29T00:22:52.144Z,10.60
2022-11-29T00:25:21.424Z,12.10
2022-11-29T00:27:51.109Z,11.10
2022-11-29T00:30:25.527Z,11.40
2022-11-29T00:32:56.962Z,10.23
2022-11-29T00:35:26.273Z,11.23
2022-11-29T00:37:55.598Z,11.65
2022-11-29T00:40:25.030Z,9.43
2022-11-29T00:42:54.299Z,10.02
2022-11-29T00:45:23.574Z,13.25
2022-11-29T00:47:53.056Z,11.88
2022-11-29T00:50:24.367Z,11.25
2022-11-29T00:52:53.651Z,13.45
2022-11-29T00:55:22.878Z,13.10
2022-11-29T00:57:57.318Z,11.50
2022-11-29T01:00:31.695Z,13.68
2022-11-29T01:03:01.170Z,12.57
2022-11-29T01:05:33.128Z,13.52
2022-11-29T01:10:31.393Z,13.70
2022-11-29T01:13:00.701Z,14.40
2022-11-29T01:15:30.362Z,12.57
2022-11-29T01:18:10.240Z,13.63
2022-11-29T01:20:41.660Z,12.93
2022-11-29T01:23:11.575Z,16.20
2022-11-29T01:25:40.795Z,12.18
2022-11-29T01:28:15.097Z,14.02
2022-11-29T01:30:46.179Z,13.35
2022-11-29T01:33:15.794Z,15.32
2022-11-29T01:35:51.706Z,12.90
2022-11-29T01:38:31.068Z,13.57
2022-11-29T01:41:02.488Z,16.13
2022-11-29T01:43:32.333Z,13.73
2022-11-29T01:48:37.014Z,14.75
2022-11-29T01:51:08.424Z,15.00
2022-11-29T01:53:42.938Z,12.43
2022-11-29T01:56:15.821Z,13.18
2022-11-29T01:58:51.301Z,14.27
2022-11-29T02:01:21.841Z,13.27
2022-11-29T02:03:56.463Z,13.02
2022-11-29T02:06:28.310Z,12.32
2022-11-29T02:08:58.241Z,13.90
2022-11-29T02:11:50.489Z,11.68
2022-11-29T02:14:38.981Z,13.15
2022-11-29T02:17:21.088Z,13.60
2022-11-29T02:20:34.967Z,10.10
2022-11-29T02:23:23.001Z,11.35
2022-11-29T02:26:13.370Z,12.35
2022-11-29T02:29:18.467Z,14.50
2022-11-29T02:32:19.238Z,14.00
2022-11-29T02:35:00.188Z,14.60
2022-11-29T02:37:58.885Z,10.95
2022-11-29T02:43:52.823Z,12.00
2022-11-29T02:49:10.091Z,12.77
2022-11-29T02:51:54.185Z,11.43
2022-11-29T02:54:29.857Z,9.65
2022-11-29T02:57:02.073Z,9.48
2022-11-29T02:59:49.540Z,10.30
2022-11-29T03:02:33.527Z,11.75
2022-11-29T03:05:14.877Z,10.40
2022-11-29T03:07:57.593Z,9.25
2022-11-29T03:10:37.039Z,10.30
2022-11-29T03:13:16.066Z,8.25
2022-11-29T03:15:53.325Z,10.40
2022-11-29T03:18:35.934Z,10.60
2022-11-29T03:21:25.245Z,9.52
2022-11-29T03:24:02.223Z,11.00
2022-11-29T03:29:14.090Z,9.25
2022-11-29T03:31:50.574Z,9.80
2022-11-29T03:34:31.916Z,9.70
2022-11-29T03:37:08.124Z,9.60
2022-11-29T03:39:49.562Z,10.95
2022-11-29T03:42:31.992Z,8.73
2022-11-29T03:45:07.631Z,11.00
2022-11-29T03:47:42.010Z,12.90
2022-11-29T03:50:18.125Z,11.93
2022-11-29T03:52:52.212Z,13.07
2022-11-29T03:55:39.905Z,12.98
2022-11-29T03:58:23.634Z,12.27
2022-11-29T04:01:17.339Z,13.27
2022-11-29T04:04:14.325Z,13.13
2022-11-29T04:06:56.935Z,12.75
2022-11-29T04:09:53.050Z,11.57
2022-11-29T04:12:56.986Z,11.23
2022-11-29T04:15:58.999Z,13.75
2022-11-29T04:18:55.930Z,12.45
2022-11-29T04:21:33.452Z,13.25
2022-11-29T04:24:32.991Z,11.88
2022-11-29T04:27:37.952Z,13.18
2022-11-29T04:30:15.832Z,13.25
2022-11-29T04:33:08.557Z,16.23
2022-11-29T04:36:08.259Z,14.15
2022-11-29T04:39:20.608Z,14.65
2022-11-29T04:42:22.170Z,13.85
2022-11-29T04:45:08.797Z,15.48
2022-11-29T04:48:01.390Z,14.20
2022-11-29T04:50:48.841Z,13.93
2022-11-29T04:53:41.193Z,13.65
2022-11-29T04:56:18.087Z,14.27
2022-11-29T04:59:01.669Z,12.65
2022-11-29T05:01:43.655Z,17.25
2022-11-29T05:04:21.271Z,12.93
2022-11-29T05:07:01.094Z,14.90
2022-11-29T05:09:39.668Z,15.73
2022-11-29T05:12:22.886Z,12.43
2022-11-29T05:15:11.833Z,11.95
2022-11-29T05:17:49.841Z,14.13
2022-11-29T05:20:35.456Z,12.73
2022-11-29T05:23:31.384Z,12.45
2022-11-29T05:26:06.577Z,11.48
2022-11-29T05:28:52.822Z,11.07
2022-11-29T05:31:32.869Z,8.85
2022-11-29T05:37:21.745Z,12.43
2022-11-29T05:40:05.320Z,14.27
2022-11-29T05:42:53.360Z,15.38
2022-11-29T05:45:27.619Z,15.45
2022-11-29T05:48:10.981Z,12.25
2022-11-29T05:50:44.827Z,13.43
2022-11-29T05:53:23.463Z,13.43
2022-11-29T05:56:01.153Z,13.45
2022-11-29T05:58:41.216Z,12.13
2022-11-29T06:01:24.297Z,12.85
2022-11-29T06:04:00.751Z,17.05
2022-11-29T06:06:41.233Z,13.93
2022-11-29T06:09:23.629Z,14.85
2022-11-29T06:11:57.557Z,12.82
2022-11-29T06:14:47.776Z,10.98
2022-11-29T06:17:44.153Z,13.02
2022-11-29T06:20:43.631Z,11.73
2022-11-29T06:23:28.714Z,11.63
2022-11-29T06:26:13.237Z,14.82
2022-11-29T06:29:01.291Z,13.00
2022-11-29T06:31:43.087Z,16.00
2022-11-29T06:34:30.513Z,14.48
2022-11-29T06:37:05.288Z,12.02
2022-11-29T06:39:40.302Z,14.63
2022-11-29T06:42:11.541Z,13.50
2022-11-29T06:44:43.113Z,15.90
2022-11-29T06:47:20.545Z,12.50
2022-11-29T06:49:53.666Z,14.73
2022-11-29T06:52:33.728Z,13.57
2022-11-29T06:55:16.476Z,15.93
2022-11-29T06:58:09.249Z,15.05
2022-11-29T07:00:52.351Z,14.75
2022-11-29T07:03:37.941Z,11.98
2022-11-29T07:06:18.029Z,14.93
2022-11-29T07:08:49.224Z,15.77
2022-11-29T07:11:19.182Z,16.63
2022-11-29T07:13:51.138Z,17.67
2022-11-29T07:16:27.802Z,15.98
2022-11-29T07:19:05.756Z,19.83
2022-11-29T07:21:48.050Z,19.17
2022-11-29T07:24:33.272Z,19.23
2022-11-29T07:27:13.641Z,20.75
2022-11-29T07:29:51.139Z,21.17
2022-11-29T07:32:28.625Z,21.70
2022-11-29T07:35:06.907Z,23.58
2022-11-29T07:37:57.655Z,24.35
2022-11-29T07:40:37.374Z,21.58
2022-11-29T07:43:21.829Z,20.67
2022-11-29T07:45:53.873Z,20.92
2022-11-29T07:48:23.084Z,18.85
2022-11-29T07:50:52.285Z,23.77
2022-11-29T07:53:28.715Z,21.67
2022-11-29T07:56:03.016Z,24.50
2022-11-29T07:58:32.230Z,22.98
2022-11-29T08:01:03.574Z,20.23
2022-11-29T08:03:35.016Z,16.88
2022-11-29T08:06:05.549Z,15.88
2022-11-29T08:08:40.685Z,17.35
2022-11-29T08:11:13.297Z,15.38
2022-11-29T08:13:42.779Z,15.60
2022-11-29T08:16:30.729Z,17.20
2022-11-29T08:19:00.495Z,15.13
2022-11-29T08:21:29.736Z,14.80
2022-11-29T08:23:58.994Z,13.25
2022-11-29T08:26:31.672Z,11.32
2022-11-29T08:29:01.285Z,11.82
2022-11-29T08:31:34.216Z,10.38
2022-11-29T08:34:03.526Z,12.82
2022-11-29T08:36:32.632Z,14.32
2022-11-29T08:39:09.570Z,13.30
2022-11-29T08:41:39.154Z,12.68
2022-11-29T08:44:10.115Z,12.38
2022-11-29T08:46:54.151Z,11.67
2022-11-29T08:49:23.717Z,11.43
2022-11-29T08:52:14.000Z,13.73
2022-11-29T08:54:41.404Z,14.02
2022-11-29T08:57:38.763Z,12.98
2022-11-29T09:00:00.020Z,13.23
2022-11-29T09:02:31.087Z,14.07
2022-11-29T09:05:05.760Z,11.57
2022-11-29T09:07:35.510Z,15.38
2022-11-29T09:10:12.554Z,14.27
2022-11-29T09:12:44.017Z,16.92
2022-11-29T09:15:14.490Z,12.18
2022-11-29T09:17:52.425Z,15.27
2022-11-29T09:20:21.803Z,15.88
2022-11-29T09:22:51.039Z,18.20
2022-11-29T09:25:25.368Z,21.75
2022-11-29T09:27:54.569Z,18.45
2022-11-29T09:30:24.058Z,26.67
2022-11-29T09:33:00.353Z,18.98
2022-11-29T09:35:29.673Z,23.50
2022-11-29T09:37:58.874Z,18.20
2022-11-29T09:40:35.591Z,16.13
2022-11-29T09:43:09.936Z,17.50
2022-11-29T09:45:44.325Z,18.90
2022-11-29T09:48:34.096Z,19.45
2022-11-29T09:51:12.814Z,21.52
2022-11-29T09:53:57.767Z,17.55
2022-11-29T09:56:38.628Z,19.17
2022-11-29T09:59:13.280Z,20.15
2022-11-29T10:01:48.487Z,19.90
2022-11-29T10:04:23.422Z,17.60
2022-11-29T10:07:04.585Z,18.25
2022-11-29T10:09:44.166Z,17.80
2022-11-29T10:12:19.475Z,22.83
2022-11-29T10:14:56.067Z,17.52
2022-11-29T10:17:35.089Z,16.77
2022-11-29T10:20:15.070Z,21.20
2022-11-29T10:22:53.633Z,20.80
2022-11-29T10:25:32.659Z,17.92
2022-11-29T10:28:11.306Z,18.05
2022-11-29T10:30:46.734Z,19.48
2022-11-29T10:33:22.146Z,17.80
2022-11-29T10:35:58.917Z,19.58
2022-11-29T10:38:33.358Z,17.67
2022-11-29T10:41:08.950Z,18.20
2022-11-29T10:43:39.185Z,20.90
2022-11-29T10:46:17.133Z,20.10
2022-11-29T10:48:51.820Z,20.35
2022-11-29T10:51:23.347Z,24.13
2022-11-29T10:54:03.619Z,22.63
2022-11-29T10:56:37.317Z,22.15
2022-11-29T10:59:08.622Z,24.08
2022-11-29T11:01:40.803Z,20.85
2022-11-29T11:04:19.358Z,20.92
2022-11-29T11:06:52.313Z,24.77
2022-11-29T11:09:24.744Z,21.88
2022-11-29T11:11:55.996Z,22.25
2022-11-29T11:14:30.691Z,18.98
2022-11-29T11:17:16.975Z,18.80
2022-11-29T11:19:57.955Z,22.98
2022-11-29T11:22:32.151Z,21.02
2022-11-29T11:25:29.440Z,19.45
2022-11-29T11:28:13.195Z,22.95
2022-11-29T11:30:42.946Z,23.45
2022-11-29T11:33:21.322Z,21.27
2022-11-29T11:36:13.940Z,25.48
2022-11-29T11:38:55.153Z,20.58
2022-11-29T11:41:49.406Z,22.40
2022-11-29T11:44:58.111Z,25.98
2022-11-29T11:47:19.775Z,21.85
2022-11-29T11:49:51.872Z,22.67
2022-11-29T11:52:25.254Z,26.45
2022-11-29T11:54:59.838Z,25.55
2022-11-29T11:57:34.384Z,22.48
2022-11-29T12:01:02.540Z,28.08
2022-11-29T12:03:33.427Z,22.83
2022-11-29T12:06:21.403Z,21.27
2022-11-29T12:08:53.007Z,18.05
2022-11-29T12:11:26.067Z,26.08
2022-11-29T12:14:00.500Z,22.95
2022-11-29T12:16:36.252Z,23.92
2022-11-29T12:19:13.996Z,22.88
2022-11-29T12:21:52.010Z,22.92
2022-11-29T12:24:32.165Z,24.40
2022-11-29T12:27:06.979Z,23.67
2022-11-29T12:29:37.483Z,22.05
2022-11-29T12:32:22.403Z,23.15
2022-11-29T12:35:18.742Z,18.73
2022-11-29T12:37:57.566Z,19.33
2022-11-29T12:40:35.690Z,21.67
2022-11-29T12:43:17.344Z,22.58
2022-11-29T12:46:02.270Z,18.58
2022-11-29T12:55:25.558Z,18.98
2022-11-29T12:58:08.929Z,20.50
2022-11-29T13:00:43.940Z,21.52
2022-11-29T13:03:23.311Z,18.60
2022-11-29T13:06:23.578Z,21.95
2022-11-29T13:09:13.625Z,19.75
2022-11-29T13:11:55.059Z,19.02
2022-11-29T13:14:48.714Z,24.35
2022-11-29T13:17:30.888Z,23.02
2022-11-29T13:20:07.339Z,18.48
2022-11-29T13:25:35.582Z,21.52
2022-11-29T13:28:21.552Z,20.45
2022-11-29T13:30:51.951Z,23.50
2022-11-29T13:33:41.774Z,22.38
2022-11-29T13:36:24.490Z,21.55
2022-11-29T13:39:02.817Z,25.33
2022-11-29T13:41:36.930Z,21.98
2022-11-29T13:44:22.894Z,22.63
2022-11-29T13:47:04.489Z,23.67
2022-11-29T13:49:52.448Z,21.75
2022-11-29T13:52:33.995Z,22.48
2022-11-29T13:55:18.245Z,26.65
2022-11-29T14:00:53.813Z,23.10
2022-11-29T14:03:32.527Z,19.15
2022-11-29T14:06:18.314Z,21.45
2022-11-29T14:09:18.781Z,27.15
2022-11-29T14:14:53.915Z,22.98
2022-11-29T14:17:49.900Z,20.63
2022-11-29T14:20:46.609Z,21.95
2022-11-29T14:23:18.065Z,21.13
2022-11-29T14:26:23.723Z,21.55
2022-11-29T14:28:56.237Z,12.23
2022-11-29T14:31:58.481Z,18.73
2022-11-29T14:34:44.211Z,20.58
2022-11-29T14:37:42.237Z,18.25
2022-11-29T14:40:25.278Z,20.85
2022-11-29T14:42:55.508Z,26.23
2022-11-29T14:45:28.231Z,21.25
2022-11-29T14:47:58.314Z,24.10
2022-11-29T14:50:38.379Z,23.92
2022-11-29T14:53:27.396Z,24.80
2022-11-29T14:59:39.352Z,21.50
2022-11-29T15:02:20.099Z,24.08
2022-11-29T15:04:53.097Z,19.73
2022-11-29T15:07:29.053Z,26.10
2022-11-29T15:10:02.617Z,23.70
2022-11-29T15:12:38.900Z,21.80
2022-11-29T15:15:31.886Z,21.23
2022-11-29T15:21:09.422Z,19.08
2022-11-29T15:23:45.497Z,18.42
2022-11-29T15:26:21.223Z,28.90
2022-11-29T15:28:50.989Z,21.27
2022-11-29T15:31:22.786Z,21.42
2022-11-29T15:33:57.687Z,23.55
2022-11-29T15:36:30.122Z,26.13
2022-11-29T15:39:01.793Z,23.02
2022-11-29T15:44:06.408Z,19.27
2022-11-29T15:46:37.585Z,19.00
2022-11-29T15:49:23.437Z,22.63
2022-11-29T15:51:58.509Z,17.73
2022-11-29T15:54:35.793Z,17.48
2022-11-29T15:57:11.819Z,20.98
2022-11-29T15:59:45.654Z,22.85
2022-11-29T16:02:21.561Z,32.25
2022-11-29T16:04:59.016Z,23.80
2022-11-29T16:07:32.193Z,34.40
2022-11-29T16:10:10.116Z,30.15
2022-11-29T16:12:53.842Z,30.58
2022-11-29T16:18:15.213Z,22.20
2022-11-29T16:20:45.157Z,34.05
2022-11-29T16:23:16.715Z,29.58
2022-11-29T16:33:48.623Z,28.35
2022-11-29T16:36:21.828Z,23.15
2022-11-29T16:38:54.255Z,25.65
2022-11-29T16:41:32.203Z,24.90
2022-11-29T16:44:05.039Z,26.70
2022-11-29T16:46:39.632Z,28.45
2022-11-29T16:49:34.562Z,28.60
2022-11-29T16:52:26.614Z,25.77
2022-11-29T16:54:57.388Z,24.73
2022-11-29T16:57:30.775Z,23.42
2022-11-29T17:00:14.943Z,26.25
2022-11-29T17:02:45.931Z,30.00
2022-11-29T17:05:19.258Z,27.23
2022-11-29T17:07:50.756Z,23.60
2022-11-29T17:10:24.590Z,24.52
2022-11-29T17:12:55.938Z,24.10
2022-11-29T17:15:30.878Z,25.48
2022-11-29T17:18:01.581Z,22.83
2022-11-29T17:20:31.804Z,27.63
2022-11-29T17:23:01.181Z,20.50
2022-11-29T17:25:30.595Z,21.40
2022-11-29T17:28:02.482Z,24.83
2022-11-29T17:30:31.893Z,23.15
2022-11-29T17:33:02.629Z,22.83
2022-11-29T17:35:32.219Z,25.00
2022-11-29T17:38:13.315Z,28.30
2022-11-29T17:40:42.963Z,26.73
2022-11-29T17:43:14.553Z,31.15
2022-11-29T17:45:45.071Z,26.48
2022-11-29T17:48:14.569Z,29.23
2022-11-29T17:50:44.295Z,25.50
2022-11-29T17:53:14.038Z,25.00
2022-11-29T17:55:48.639Z,24.25
2022-11-29T17:58:20.297Z,30.25
2022-11-29T18:03:23.554Z,26.90
2022-11-29T18:05:52.887Z,24.85
2022-11-29T18:08:22.061Z,24.88
2022-11-29T18:13:30.033Z,19.77
2022-11-29T18:16:04.536Z,25.50
2022-11-29T18:18:33.813Z,23.75
2022-11-29T18:21:04.785Z,21.67
2022-11-29T18:23:34.851Z,26.23
2022-11-29T18:26:06.396Z,25.92
2022-11-29T18:28:40.906Z,28.15
2022-11-29T18:31:15.201Z,25.92
2022-11-29T18:33:46.453Z,24.13
2022-11-29T18:36:17.507Z,21.98
2022-11-29T18:38:47.749Z,16.60
2022-11-29T18:41:19.397Z,24.48
2022-11-29T18:46:21.628Z,22.88
2022-11-29T18:49:01.157Z,26.35
2022-11-29T18:51:31.847Z,28.35
2022-11-29T18:54:01.826Z,25.70
2022-11-29T18:56:37.477Z,23.42
2022-11-29T18:59:10.683Z,20.20
2022-11-29T19:01:42.935Z,28.00
2022-11-29T19:04:14.259Z,23.90
2022-11-29T19:06:49.418Z,19.70
2022-11-29T19:09:21.488Z,33.15
2022-11-29T19:11:55.992Z,27.45
2022-11-29T19:14:27.447Z,21.05
2022-11-29T19:16:56.639Z,26.05
2022-11-29T19:19:25.795Z,23.00
2022-11-29T19:21:55.300Z,26.13
2022-11-29T19:24:24.866Z,26.88
2022-11-29T19:26:55.384Z,23.60
2022-11-29T19:29:26.612Z,25.90
2022-11-29T19:31:55.844Z,26.30
2022-11-29T19:34:27.417Z,25.50
2022-11-29T19:39:28.908Z,22.98
2022-11-29T19:41:58.266Z,24.63
2022-11-29T19:44:30.204Z,24.23
2022-11-29T19:47:03.723Z,24.25
2022-11-29T19:49:33.125Z,27.27
2022-11-29T19:52:02.811Z,23.73
2022-11-29T19:54:32.323Z,25.10
2022-11-29T19:57:02.141Z,20.77
2022-11-29T19:59:33.349Z,24.80
2022-11-29T20:02:02.644Z,22.95
2022-11-29T20:04:31.835Z,25.92
2022-11-29T20:07:01.102Z,26.98
2022-11-29T20:09:30.332Z,24.75
2022-11-29T20:11:59.652Z,23.48
2022-11-29T20:14:28.793Z,23.50
2022-11-29T20:17:00.084Z,25.52
2022-11-29T20:19:29.670Z,23.85
2022-11-29T20:21:58.994Z,26.17
2022-11-29T20:24:28.325Z,23.65
2022-11-29T20:26:57.560Z,22.85
2022-11-29T20:29:30.289Z,24.33
2022-11-29T20:32:01.485Z,25.13
2022-11-29T20:34:38.242Z,23.70
2022-11-29T20:39:57.031Z,22.40
2022-11-29T20:42:43.931Z,26.88
2022-11-29T20:45:15.916Z,22.85
2022-11-29T20:47:52.740Z,21.98
2022-11-29T20:50:24.261Z,25.45
2022-11-29T20:53:05.599Z,23.27
2022-11-29T20:55:47.743Z,21.73
2022-11-29T20:58:18.988Z,26.60
2022-11-29T21:00:48.602Z,30.90
2022-11-29T21:03:20.657Z,24.50
2022-11-29T21:05:50.823Z,26.20
2022-11-29T21:08:22.033Z,27.38
2022-11-29T21:10:56.586Z,24.25
2022-11-29T21:13:27.593Z,25.92
2022-11-29T21:16:02.529Z,32.05
2022-11-29T21:18:34.951Z,27.05
2022-11-29T21:21:25.800Z,25.33
2022-11-29T21:24:02.879Z,29.25
2022-11-29T21:26:41.560Z,31.02
2022-11-29T21:29:19.193Z,31.10
2022-11-29T21:31:51.330Z,31.13
2022-11-29T21:34:23.342Z,35.60
2022-11-29T21:36:58.437Z,39.22
2022-11-29T21:39:33.809Z,37.42
2022-11-29T21:42:03.402Z,40.33
2022-11-29T21:44:32.591Z,33.38
2022-11-29T21:47:01.898Z,36.30
2022-11-29T21:49:33.108Z,37.22
2022-11-29T21:52:02.831Z,49.72
2022-11-29T21:54:32.323Z,34.15
2022-11-29T21:57:02.331Z,41.97
2022-11-29T21:59:31.799Z,33.70
2022-11-29T22:02:01.805Z,40.50
2022-11-29T22:04:33.119Z,38.20
2022-11-29T22:07:02.438Z,49.47
2022-11-29T22:09:31.585Z,37.47
2022-11-29T22:12:06.619Z,36.92
2022-11-29T22:14:48.928Z,38.28
2022-11-29T22:17:18.084Z,35.75
2022-11-29T22:19:49.170Z,41.90
2022-11-29T22:24:53.628Z,39.33
2022-11-29T22:27:22.882Z,39.35
2022-11-29T22:29:52.194Z,46.05
2022-11-29T22:32:21.428Z,39.40
2022-11-29T22:34:52.457Z,39.78
2022-11-29T22:37:21.773Z,34.47
2022-11-29T22:39:51.088Z,36.03
2022-11-29T22:42:25.504Z,42.92
2022-11-29T22:44:54.795Z,34.20
2022-11-29T22:47:31.190Z,44.08
2022-11-29T22:50:06.052Z,39.55
2022-11-29T22:52:40.401Z,45.65
2022-11-29T22:55:10.569Z,39.78
2022-11-29T22:57:40.179Z,36.33
2022-11-29T23:00:13.179Z,31.67
2022-11-29T23:05:13.381Z,43.90
2022-11-29T23:07:42.787Z,43.72
2022-11-29T23:10:12.875Z,44.17
2022-11-29T23:12:42.132Z,42.80
2022-11-29T23:15:12.019Z,41.22
2022-11-29T23:17:41.174Z,39.55
2022-11-29T23:20:13.903Z,46.03
2022-11-29T23:22:43.248Z,49.55
2022-11-29T23:25:12.437Z,42.80
2022-11-29T23:27:42.056Z,50.38
2022-11-29T23:30:12.236Z,49.40
2022-11-29T23:32:41.472Z,40.10
2022-11-29T23:35:11.157Z,49.28
2022-11-29T23:37:42.315Z,45.38
2022-11-29T23:40:12.704Z,48.45
2022-11-29T23:42:46.459Z,38.97
2022-11-29T23:45:16.662Z,43.35
2022-11-29T23:47:45.759Z,50.38
2022-11-29T23:50:14.997Z,48.42
2022-11-29T23:52:45.993Z,50.78
2022-11-29T23:55:16.622Z,47.15
2022-11-29T23:57:49.630Z,48.88
